sensor_id;sensor_type;location;lat;lon;timestamp;P1;durP1;ratioP1;P2;durP2;ratioP2
7957;SDS011;4024;52.172;5.378;2022-12-28T00:01:23;13.03;;;6.00;;
7957;SDS011;4024;52.172;5.378;2022-12-28T00:03:51;10.30;;;5.53;;
7957;SDS011;4024;52.172;5.378;2022-12-28T00:06:18;8.80;;;5.60;;
7957;SDS011;4024;52.172;5.378;2022-12-28T00:08:45;11.13;;;5.80;;
7957;SDS011;4024;52.172;5.378;2022-12-28T00:11:13;10.03;;;5.47;;
7957;SDS011;4024;52.172;5.378;2022-12-28T00:13:43;8.67;;;5.47;;
7957;SDS011;4024;52.172;5.378;2022-12-28T00:16:11;11.47;;;5.70;;
7957;SDS011;4024;52.172;5.378;2022-12-28T00:18:50;7.47;;;5.27;;
7957;SDS011;4024;52.172;5.378;2022-12-28T00:21:17;9.23;;;6.33;;
7957;SDS011;4024;52.172;5.378;2022-12-28T00:23:43;8.23;;;5.30;;
7957;SDS011;4024;52.172;5.378;2022-12-28T00:26:10;10.23;;;5.57;;
7957;SDS011;4024;52.172;5.378;2022-12-28T00:28:37;12.27;;;5.30;;
7957;SDS011;4024;52.172;5.378;2022-12-28T00:31:03;8.47;;;5.07;;
7957;SDS011;4024;52.172;5.378;2022-12-28T00:33:29;10.17;;;5.60;;
7957;SDS011;4024;52.172;5.378;2022-12-28T00:35:56;9.63;;;5.53;;
7957;SDS011;4024;52.172;5.378;2022-12-28T00:38:22;7.37;;;4.80;;
7957;SDS011;4024;52.172;5.378;2022-12-28T00:40:48;7.53;;;5.70;;
7957;SDS011;4024;52.172;5.378;2022-12-28T00:43:14;11.53;;;5.80;;
7957;SDS011;4024;52.172;5.378;2022-12-28T00:45:49;11.03;;;5.90;;
7957;SDS011;4024;52.172;5.378;2022-12-28T00:48:14;8.70;;;5.60;;
7957;SDS011;4024;52.172;5.378;2022-12-28T00:50:41;8.33;;;5.27;;
7957;SDS011;4024;52.172;5.378;2022-12-28T00:53:08;6.77;;;5.40;;
7957;SDS011;4024;52.172;5.378;2022-12-28T00:55:34;12.73;;;5.43;;
7957;SDS011;4024;52.172;5.378;2022-12-28T00:58:01;9.33;;;5.10;;
7957;SDS011;4024;52.172;5.378;2022-12-28T01:00:27;7.07;;;5.13;;
7957;SDS011;4024;52.172;5.378;2022-12-28T01:02:53;9.30;;;5.23;;
7957;SDS011;4024;52.172;5.378;2022-12-28T01:05:19;10.60;;;5.50;;
7957;SDS011;4024;52.172;5.378;2022-12-28T01:07:45;9.17;;;5.33;;
7957;SDS011;4024;52.172;5.378;2022-12-28T01:10:11;9.37;;;5.30;;
7957;SDS011;4024;52.172;5.378;2022-12-28T01:12:36;11.20;;;5.60;;
7957;SDS011;4024;52.172;5.378;2022-12-28T01:15:02;9.87;;;5.83;;
7957;SDS011;4024;52.172;5.378;2022-12-28T01:17:29;9.77;;;5.67;;
7957;SDS011;4024;52.172;5.378;2022-12-28T01:19:55;10.50;;;5.87;;
7957;SDS011;4024;52.172;5.378;2022-12-28T01:22:21;8.03;;;5.37;;
7957;SDS011;4024;52.172;5.378;2022-12-28T01:24:47;6.17;;;5.03;;
7957;SDS011;4024;52.172;5.378;2022-12-28T01:27:13;11.27;;;5.33;;
7957;SDS011;4024;52.172;5.378;2022-12-28T01:29:38;11.17;;;5.67;;
7957;SDS011;4024;52.172;5.378;2022-12-28T01:32:04;8.30;;;5.43;;
7957;SDS011;4024;52.172;5.378;2022-12-28T01:34:30;9.53;;;5.37;;
7957;SDS011;4024;52.172;5.378;2022-12-28T01:36:55;8.10;;;5.43;;
7957;SDS011;4024;52.172;5.378;2022-12-28T01:39:21;9.17;;;4.80;;
7957;SDS011;4024;52.172;5.378;2022-12-28T01:41:47;6.50;;;5.33;;
7957;SDS011;4024;52.172;5.378;2022-12-28T01:46:55;9.93;;;5.63;;
7957;SDS011;4024;52.172;5.378;2022-12-28T01:51:54;8.40;;;5.70;;
7957;SDS011;4024;52.172;5.378;2022-12-28T01:54:30;7.67;;;5.43;;
7957;SDS011;4024;52.172;5.378;2022-12-28T01:57:02;10.00;;;5.80;;
7957;SDS011;4024;52.172;5.378;2022-12-28T01:59:29;8.97;;;5.90;;
7957;SDS011;4024;52.172;5.378;2022-12-28T02:01:57;9.07;;;5.97;;
7957;SDS011;4024;52.172;5.378;2022-12-28T02:04:24;9.27;;;5.50;;
7957;SDS011;4024;52.172;5.378;2022-12-28T02:06:51;7.53;;;5.60;;
7957;SDS011;4024;52.172;5.378;2022-12-28T02:09:19;7.77;;;5.90;;
7957;SDS011;4024;52.172;5.378;2022-12-28T02:11:50;9.50;;;6.37;;
7957;SDS011;4024;52.172;5.378;2022-12-28T02:14:17;7.90;;;6.17;;
7957;SDS011;4024;52.172;5.378;2022-12-28T02:16:43;9.70;;;6.40;;
7957;SDS011;4024;52.172;5.378;2022-12-28T02:19:10;13.33;;;7.33;;
7957;SDS011;4024;52.172;5.378;2022-12-28T02:22:00;9.83;;;6.57;;
7957;SDS011;4024;52.172;5.378;2022-12-28T02:30:31;10.73;;;6.93;;
7957;SDS011;4024;52.172;5.378;2022-12-28T02:38:27;7.43;;;6.13;;
7957;SDS011;4024;52.172;5.378;2022-12-28T02:41:04;9.23;;;7.03;;
7957;SDS011;4024;52.172;5.378;2022-12-28T02:43:36;10.70;;;7.30;;
7957;SDS011;4024;52.172;5.378;2022-12-28T02:46:25;9.23;;;7.40;;
7957;SDS011;4024;52.172;5.378;2022-12-28T02:49:17;8.20;;;6.53;;
7957;SDS011;4024;52.172;5.378;2022-12-28T02:52:15;7.83;;;6.53;;
7957;SDS011;4024;52.172;5.378;2022-12-28T03:15:23;10.33;;;7.33;;
7957;SDS011;4024;52.172;5.378;2022-12-28T03:18:00;8.93;;;7.27;;
7957;SDS011;4024;52.172;5.378;2022-12-28T03:21:06;9.00;;;7.27;;
7957;SDS011;4024;52.172;5.378;2022-12-28T03:23:53;9.77;;;7.10;;
7957;SDS011;4024;52.172;5.378;2022-12-28T03:26:40;9.60;;;7.67;;
7957;SDS011;4024;52.172;5.378;2022-12-28T03:29:29;8.57;;;7.30;;
7957;SDS011;4024;52.172;5.378;2022-12-28T03:32:17;10.30;;;7.80;;
7957;SDS011;4024;52.172;5.378;2022-12-28T03:34:43;11.20;;;8.37;;
7957;SDS011;4024;52.172;5.378;2022-12-28T03:37:11;11.17;;;8.47;;
7957;SDS011;4024;52.172;5.378;2022-12-28T03:39:44;10.87;;;7.87;;
7957;SDS011;4024;52.172;5.378;2022-12-28T03:42:15;10.37;;;8.40;;
7957;SDS011;4024;52.172;5.378;2022-12-28T03:47:43;10.43;;;8.50;;
7957;SDS011;4024;52.172;5.378;2022-12-28T03:50:13;10.47;;;8.40;;
7957;SDS011;4024;52.172;5.378;2022-12-28T03:52:39;10.30;;;8.93;;
7957;SDS011;4024;52.172;5.378;2022-12-28T03:55:05;9.20;;;8.13;;
7957;SDS011;4024;52.172;5.378;2022-12-28T03:57:31;9.67;;;8.50;;
7957;SDS011;4024;52.172;5.378;2022-12-28T03:59:57;10.80;;;8.90;;
7957;SDS011;4024;52.172;5.378;2022-12-28T04:02:22;9.40;;;8.37;;
7957;SDS011;4024;52.172;5.378;2022-12-28T04:04:48;8.97;;;8.07;;
7957;SDS011;4024;52.172;5.378;2022-12-28T04:07:14;10.80;;;8.60;;
7957;SDS011;4024;52.172;5.378;2022-12-28T04:09:39;10.53;;;9.43;;
7957;SDS011;4024;52.172;5.378;2022-12-28T04:12:05;11.30;;;8.83;;
7957;SDS011;4024;52.172;5.378;2022-12-28T04:14:30;9.97;;;8.47;;
7957;SDS011;4024;52.172;5.378;2022-12-28T04:16:56;11.87;;;8.77;;
7957;SDS011;4024;52.172;5.378;2022-12-28T04:19:22;10.73;;;9.63;;
7957;SDS011;4024;52.172;5.378;2022-12-28T04:21:47;10.43;;;9.40;;
7957;SDS011;4024;52.172;5.378;2022-12-28T04:24:13;10.03;;;9.07;;
7957;SDS011;4024;52.172;5.378;2022-12-28T04:26:38;10.73;;;8.40;;
7957;SDS011;4024;52.172;5.378;2022-12-28T04:29:04;9.87;;;8.87;;
7957;SDS011;4024;52.172;5.378;2022-12-28T04:31:30;10.47;;;9.20;;
7957;SDS011;4024;52.172;5.378;2022-12-28T04:33:56;10.70;;;8.73;;
7957;SDS011;4024;52.172;5.378;2022-12-28T04:36:23;11.40;;;8.83;;
7957;SDS011;4024;52.172;5.378;2022-12-28T04:38:48;9.87;;;8.63;;
7957;SDS011;4024;52.172;5.378;2022-12-28T04:41:14;12.30;;;9.50;;
7957;SDS011;4024;52.172;5.378;2022-12-28T04:43:40;13.13;;;8.83;;
7957;SDS011;4024;52.172;5.378;2022-12-28T04:46:06;11.30;;;9.40;;
7957;SDS011;4024;52.172;5.378;2022-12-28T04:48:35;10.17;;;9.17;;
7957;SDS011;4024;52.172;5.378;2022-12-28T04:51:05;10.33;;;9.27;;
7957;SDS011;4024;52.172;5.378;2022-12-28T04:53:39;10.17;;;9.10;;
7957;SDS011;4024;52.172;5.378;2022-12-28T04:56:06;10.70;;;9.60;;
7957;SDS011;4024;52.172;5.378;2022-12-28T04:58:33;9.53;;;8.63;;
7957;SDS011;4024;52.172;5.378;2022-12-28T05:01:06;11.07;;;9.00;;
7957;SDS011;4024;52.172;5.378;2022-12-28T05:03:33;9.37;;;8.37;;
7957;SDS011;4024;52.172;5.378;2022-12-28T05:06:00;8.97;;;8.07;;
7957;SDS011;4024;52.172;5.378;2022-12-28T05:08:26;9.97;;;8.77;;
7957;SDS011;4024;52.172;5.378;2022-12-28T05:10:52;9.87;;;8.67;;
7957;SDS011;4024;52.172;5.378;2022-12-28T05:13:18;9.60;;;8.00;;
7957;SDS011;4024;52.172;5.378;2022-12-28T05:15:43;12.30;;;9.00;;
7957;SDS011;4024;52.172;5.378;2022-12-28T05:18:09;9.90;;;8.80;;
7957;SDS011;4024;52.172;5.378;2022-12-28T05:20:35;9.80;;;8.30;;
7957;SDS011;4024;52.172;5.378;2022-12-28T05:23:00;10.30;;;8.27;;
7957;SDS011;4024;52.172;5.378;2022-12-28T05:25:26;12.07;;;8.40;;
7957;SDS011;4024;52.172;5.378;2022-12-28T05:27:53;8.37;;;7.50;;
7957;SDS011;4024;52.172;5.378;2022-12-28T05:30:18;9.83;;;7.27;;
7957;SDS011;4024;52.172;5.378;2022-12-28T05:32:44;8.87;;;7.80;;
7957;SDS011;4024;52.172;5.378;2022-12-28T05:35:10;7.80;;;7.00;;
7957;SDS011;4024;52.172;5.378;2022-12-28T05:37:35;8.37;;;6.87;;
7957;SDS011;4024;52.172;5.378;2022-12-28T05:40:01;8.80;;;7.37;;
7957;SDS011;4024;52.172;5.378;2022-12-28T05:42:27;8.87;;;7.00;;
7957;SDS011;4024;52.172;5.378;2022-12-28T05:44:52;8.27;;;7.40;;
7957;SDS011;4024;52.172;5.378;2022-12-28T05:47:18;10.00;;;6.33;;
7957;SDS011;4024;52.172;5.378;2022-12-28T05:49:44;9.40;;;6.47;;
7957;SDS011;4024;52.172;5.378;2022-12-28T05:52:09;9.10;;;5.93;;
7957;SDS011;4024;52.172;5.378;2022-12-28T05:54:35;6.87;;;6.00;;
7957;SDS011;4024;52.172;5.378;2022-12-28T05:57:00;6.30;;;5.70;;
7957;SDS011;4024;52.172;5.378;2022-12-28T05:59:26;7.00;;;6.17;;
7957;SDS011;4024;52.172;5.378;2022-12-28T06:01:52;6.83;;;5.93;;
7957;SDS011;4024;52.172;5.378;2022-12-28T06:04:19;6.20;;;5.70;;
7957;SDS011;4024;52.172;5.378;2022-12-28T06:06:45;6.23;;;5.73;;
7957;SDS011;4024;52.172;5.378;2022-12-28T06:09:13;8.83;;;6.23;;
7957;SDS011;4024;52.172;5.378;2022-12-28T06:11:38;6.60;;;5.83;;
7957;SDS011;4024;52.172;5.378;2022-12-28T06:14:04;7.40;;;6.00;;
7957;SDS011;4024;52.172;5.378;2022-12-28T06:16:35;7.73;;;6.57;;
7957;SDS011;4024;52.172;5.378;2022-12-28T06:19:03;6.60;;;6.00;;
7957;SDS011;4024;52.172;5.378;2022-12-28T06:21:31;7.70;;;6.13;;
7957;SDS011;4024;52.172;5.378;2022-12-28T06:23:59;6.60;;;6.00;;
7957;SDS011;4024;52.172;5.378;2022-12-28T06:26:27;6.27;;;5.67;;
7957;SDS011;4024;52.172;5.378;2022-12-28T06:28:54;6.43;;;5.87;;
7957;SDS011;4024;52.172;5.378;2022-12-28T06:31:20;6.30;;;5.67;;
7957;SDS011;4024;52.172;5.378;2022-12-28T06:33:49;7.33;;;5.43;;
7957;SDS011;4024;52.172;5.378;2022-12-28T06:36:22;7.13;;;5.13;;
7957;SDS011;4024;52.172;5.378;2022-12-28T06:38:56;7.50;;;6.07;;
7957;SDS011;4024;52.172;5.378;2022-12-28T06:41:23;6.23;;;5.10;;
7957;SDS011;4024;52.172;5.378;2022-12-28T06:43:49;6.83;;;4.73;;
7957;SDS011;4024;52.172;5.378;2022-12-28T06:46:15;5.47;;;4.73;;
7957;SDS011;4024;52.172;5.378;2022-12-28T06:48:44;6.93;;;5.13;;
7957;SDS011;4024;52.172;5.378;2022-12-28T06:51:10;6.40;;;4.90;;
7957;SDS011;4024;52.172;5.378;2022-12-28T06:53:40;7.67;;;5.30;;
7957;SDS011;4024;52.172;5.378;2022-12-28T06:56:11;6.30;;;4.90;;
7957;SDS011;4024;52.172;5.378;2022-12-28T06:58:40;6.47;;;4.70;;
7957;SDS011;4024;52.172;5.378;2022-12-28T07:01:06;5.43;;;4.90;;
7957;SDS011;4024;52.172;5.378;2022-12-28T07:03:33;8.10;;;4.40;;
7957;SDS011;4024;52.172;5.378;2022-12-28T07:05:59;6.77;;;4.77;;
7957;SDS011;4024;52.172;5.378;2022-12-28T07:08:26;6.23;;;4.40;;
7957;SDS011;4024;52.172;5.378;2022-12-28T07:10:52;5.50;;;4.63;;
7957;SDS011;4024;52.172;5.378;2022-12-28T07:13:18;4.93;;;4.43;;
7957;SDS011;4024;52.172;5.378;2022-12-28T07:15:43;4.80;;;4.40;;
7957;SDS011;4024;52.172;5.378;2022-12-28T07:18:09;5.23;;;4.73;;
7957;SDS011;4024;52.172;5.378;2022-12-28T07:20:34;5.97;;;4.40;;
7957;SDS011;4024;52.172;5.378;2022-12-28T07:23:00;6.60;;;4.83;;
7957;SDS011;4024;52.172;5.378;2022-12-28T07:25:26;6.53;;;4.67;;
7957;SDS011;4024;52.172;5.378;2022-12-28T07:27:51;5.77;;;4.40;;
7957;SDS011;4024;52.172;5.378;2022-12-28T07:30:17;7.50;;;4.23;;
7957;SDS011;4024;52.172;5.378;2022-12-28T07:32:42;5.07;;;4.50;;
7957;SDS011;4024;52.172;5.378;2022-12-28T07:35:10;7.27;;;4.33;;
7957;SDS011;4024;52.172;5.378;2022-12-28T07:37:36;7.30;;;4.40;;
7957;SDS011;4024;52.172;5.378;2022-12-28T07:40:02;6.13;;;4.03;;
7957;SDS011;4024;52.172;5.378;2022-12-28T07:42:28;9.27;;;4.97;;
7957;SDS011;4024;52.172;5.378;2022-12-28T07:44:54;5.07;;;4.67;;
7957;SDS011;4024;52.172;5.378;2022-12-28T07:47:19;5.90;;;4.40;;
7957;SDS011;4024;52.172;5.378;2022-12-28T07:49:45;5.50;;;4.73;;
7957;SDS011;4024;52.172;5.378;2022-12-28T07:52:10;9.37;;;5.00;;
7957;SDS011;4024;52.172;5.378;2022-12-28T07:54:36;6.27;;;4.90;;
7957;SDS011;4024;52.172;5.378;2022-12-28T07:57:03;5.27;;;4.77;;
7957;SDS011;4024;52.172;5.378;2022-12-28T07:59:28;4.70;;;4.30;;
7957;SDS011;4024;52.172;5.378;2022-12-28T08:01:54;5.07;;;4.23;;
7957;SDS011;4024;52.172;5.378;2022-12-28T08:04:19;8.87;;;4.37;;
7957;SDS011;4024;52.172;5.378;2022-12-28T08:06:45;4.63;;;4.23;;
7957;SDS011;4024;52.172;5.378;2022-12-28T08:09:13;4.73;;;4.03;;
7957;SDS011;4024;52.172;5.378;2022-12-28T08:11:41;5.67;;;4.00;;
7957;SDS011;4024;52.172;5.378;2022-12-28T08:14:08;4.57;;;4.17;;
7957;SDS011;4024;52.172;5.378;2022-12-28T08:16:35;5.63;;;4.27;;
7957;SDS011;4024;52.172;5.378;2022-12-28T08:19:06;4.43;;;4.03;;
7957;SDS011;4024;52.172;5.378;2022-12-28T08:21:33;5.43;;;4.27;;
7957;SDS011;4024;52.172;5.378;2022-12-28T08:24:01;5.27;;;4.20;;
7957;SDS011;4024;52.172;5.378;2022-12-28T08:26:29;4.83;;;4.30;;
7957;SDS011;4024;52.172;5.378;2022-12-28T08:28:59;5.33;;;4.20;;
7957;SDS011;4024;52.172;5.378;2022-12-28T08:31:31;5.10;;;4.40;;
7957;SDS011;4024;52.172;5.378;2022-12-28T08:33:59;5.37;;;4.40;;
7957;SDS011;4024;52.172;5.378;2022-12-28T08:36:26;5.07;;;4.50;;
7957;SDS011;4024;52.172;5.378;2022-12-28T08:38:52;5.30;;;4.80;;
7957;SDS011;4024;52.172;5.378;2022-12-28T08:41:19;5.33;;;4.83;;
7957;SDS011;4024;52.172;5.378;2022-12-28T08:43:47;7.70;;;5.43;;
7957;SDS011;4024;52.172;5.378;2022-12-28T08:46:15;6.67;;;5.73;;
7957;SDS011;4024;52.172;5.378;2022-12-28T08:48:43;6.17;;;5.53;;
7957;SDS011;4024;52.172;5.378;2022-12-28T08:51:11;6.50;;;5.90;;
7957;SDS011;4024;52.172;5.378;2022-12-28T08:53:38;6.37;;;5.77;;
7957;SDS011;4024;52.172;5.378;2022-12-28T08:56:09;6.93;;;6.23;;
7957;SDS011;4024;52.172;5.378;2022-12-28T08:58:36;6.90;;;5.63;;
7957;SDS011;4024;52.172;5.378;2022-12-28T09:01:04;8.47;;;5.70;;
7957;SDS011;4024;52.172;5.378;2022-12-28T09:03:30;7.07;;;5.57;;
7957;SDS011;4024;52.172;5.378;2022-12-28T09:05:56;6.53;;;5.80;;
7957;SDS011;4024;52.172;5.378;2022-12-28T09:08:22;5.63;;;5.20;;
7957;SDS011;4024;52.172;5.378;2022-12-28T09:10:47;7.77;;;5.33;;
7957;SDS011;4024;52.172;5.378;2022-12-28T09:13:14;5.70;;;5.20;;
7957;SDS011;4024;52.172;5.378;2022-12-28T09:18:08;6.23;;;5.27;;
7957;SDS011;4024;52.172;5.378;2022-12-28T09:20:33;7.87;;;5.50;;
7957;SDS011;4024;52.172;5.378;2022-12-28T09:22:59;5.77;;;5.13;;
7957;SDS011;4024;52.172;5.378;2022-12-28T09:25:26;5.67;;;5.17;;
7957;SDS011;4024;52.172;5.378;2022-12-28T09:27:51;7.13;;;5.00;;
7957;SDS011;4024;52.172;5.378;2022-12-28T09:30:17;10.40;;;5.60;;
7957;SDS011;4024;52.172;5.378;2022-12-28T09:32:42;5.97;;;5.30;;
7957;SDS011;4024;52.172;5.378;2022-12-28T09:35:08;6.37;;;5.17;;
7957;SDS011;4024;52.172;5.378;2022-12-28T09:37:34;6.23;;;5.40;;
7957;SDS011;4024;52.172;5.378;2022-12-28T09:40:01;6.27;;;5.77;;
7957;SDS011;4024;52.172;5.378;2022-12-28T09:42:27;7.07;;;5.73;;
7957;SDS011;4024;52.172;5.378;2022-12-28T09:44:56;9.33;;;6.30;;
7957;SDS011;4024;52.172;5.378;2022-12-28T09:47:31;6.97;;;5.80;;
7957;SDS011;4024;52.172;5.378;2022-12-28T09:55:30;8.57;;;6.00;;
7957;SDS011;4024;52.172;5.378;2022-12-28T09:57:59;9.63;;;5.93;;
7957;SDS011;4024;52.172;5.378;2022-12-28T10:00:36;8.20;;;6.13;;
7957;SDS011;4024;52.172;5.378;2022-12-28T10:05:45;8.20;;;5.77;;
7957;SDS011;4024;52.172;5.378;2022-12-28T10:08:14;9.13;;;5.47;;
7957;SDS011;4024;52.172;5.378;2022-12-28T10:10:42;8.30;;;5.10;;
7957;SDS011;4024;52.172;5.378;2022-12-28T10:13:22;9.13;;;6.03;;
7957;SDS011;4024;52.172;5.378;2022-12-28T10:15:49;5.97;;;5.10;;
7957;SDS011;4024;52.172;5.378;2022-12-28T10:18:17;6.93;;;5.40;;
7957;SDS011;4024;52.172;5.378;2022-12-28T10:20:49;7.00;;;5.00;;
7957;SDS011;4024;52.172;5.378;2022-12-28T10:23:17;8.80;;;4.70;;
7957;SDS011;4024;52.172;5.378;2022-12-28T10:25:47;5.17;;;4.67;;
7957;SDS011;4024;52.172;5.378;2022-12-28T10:28:16;6.13;;;5.00;;
7957;SDS011;4024;52.172;5.378;2022-12-28T10:33:36;6.70;;;5.03;;
7957;SDS011;4024;52.172;5.378;2022-12-28T10:36:03;6.90;;;6.20;;
7957;SDS011;4024;52.172;5.378;2022-12-28T10:38:30;8.70;;;5.77;;
7957;SDS011;4024;52.172;5.378;2022-12-28T10:40:58;7.43;;;6.20;;
7957;SDS011;4024;52.172;5.378;2022-12-28T10:43:28;8.30;;;6.50;;
7957;SDS011;4024;52.172;5.378;2022-12-28T10:45:56;6.53;;;5.93;;
7957;SDS011;4024;52.172;5.378;2022-12-28T10:48:24;7.70;;;6.00;;
7957;SDS011;4024;52.172;5.378;2022-12-28T10:50:54;11.77;;;6.10;;
7957;SDS011;4024;52.172;5.378;2022-12-28T10:53:42;7.70;;;5.90;;
7957;SDS011;4024;52.172;5.378;2022-12-28T10:58:38;10.00;;;6.10;;
7957;SDS011;4024;52.172;5.378;2022-12-28T11:03:36;7.80;;;6.00;;
7957;SDS011;4024;52.172;5.378;2022-12-28T11:08:36;7.40;;;6.47;;
7957;SDS011;4024;52.172;5.378;2022-12-28T11:11:03;7.33;;;6.30;;
7957;SDS011;4024;52.172;5.378;2022-12-28T11:13:29;6.90;;;6.20;;
7957;SDS011;4024;52.172;5.378;2022-12-28T11:15:55;6.70;;;6.00;;
7957;SDS011;4024;52.172;5.378;2022-12-28T11:18:21;6.87;;;5.50;;
7957;SDS011;4024;52.172;5.378;2022-12-28T11:20:47;5.70;;;5.30;;
7957;SDS011;4024;52.172;5.378;2022-12-28T11:25:55;5.33;;;4.83;;
7957;SDS011;4024;52.172;5.378;2022-12-28T11:28:22;6.37;;;5.20;;
7957;SDS011;4024;52.172;5.378;2022-12-28T11:30:48;5.30;;;4.80;;
7957;SDS011;4024;52.172;5.378;2022-12-28T11:36:04;6.33;;;5.17;;
7957;SDS011;4024;52.172;5.378;2022-12-28T11:38:42;5.20;;;4.70;;
7957;SDS011;4024;52.172;5.378;2022-12-28T11:43:48;5.47;;;4.97;;
7957;SDS011;4024;52.172;5.378;2022-12-28T11:51:27;5.90;;;5.30;;
7957;SDS011;4024;52.172;5.378;2022-12-28T11:54:00;7.73;;;5.17;;
7957;SDS011;4024;52.172;5.378;2022-12-28T12:01:56;4.73;;;4.33;;
7957;SDS011;4024;52.172;5.378;2022-12-28T12:04:29;5.33;;;4.43;;
7957;SDS011;4024;52.172;5.378;2022-12-28T12:12:48;4.77;;;4.37;;
7957;SDS011;4024;52.172;5.378;2022-12-28T12:14:55;7.17;;;4.47;;
7957;SDS011;4024;52.172;5.378;2022-12-28T12:19:59;4.83;;;3.90;;
7957;SDS011;4024;52.172;5.378;2022-12-28T12:22:31;5.57;;;4.13;;
7957;SDS011;4024;52.172;5.378;2022-12-28T12:27:44;4.20;;;3.80;;
7957;SDS011;4024;52.172;5.378;2022-12-28T12:30:27;5.43;;;3.50;;
7957;SDS011;4024;52.172;5.378;2022-12-28T12:33:02;5.07;;;3.43;;
7957;SDS011;4024;52.172;5.378;2022-12-28T12:36:15;4.97;;;4.10;;
7957;SDS011;4024;52.172;5.378;2022-12-28T12:38:37;6.10;;;3.87;;
7957;SDS011;4024;52.172;5.378;2022-12-28T12:46:40;5.53;;;4.00;;
7957;SDS011;4024;52.172;5.378;2022-12-28T12:52:40;7.70;;;4.73;;
7957;SDS011;4024;52.172;5.378;2022-12-28T12:55:18;5.90;;;3.90;;
7957;SDS011;4024;52.172;5.378;2022-12-28T12:58:02;4.83;;;4.37;;
7957;SDS011;4024;52.172;5.378;2022-12-28T13:03:51;4.83;;;4.33;;
7957;SDS011;4024;52.172;5.378;2022-12-28T13:06:20;5.77;;;4.13;;
7957;SDS011;4024;52.172;5.378;2022-12-28T13:08:55;7.10;;;4.20;;
7957;SDS011;4024;52.172;5.378;2022-12-28T13:11:24;6.37;;;4.70;;
7957;SDS011;4024;52.172;5.378;2022-12-28T13:13:50;5.37;;;4.10;;
7957;SDS011;4024;52.172;5.378;2022-12-28T13:16:18;5.60;;;4.37;;
7957;SDS011;4024;52.172;5.378;2022-12-28T13:18:53;6.77;;;4.57;;
7957;SDS011;4024;52.172;5.378;2022-12-28T13:21:20;7.90;;;4.57;;
7957;SDS011;4024;52.172;5.378;2022-12-28T13:23:47;7.80;;;4.20;;
7957;SDS011;4024;52.172;5.378;2022-12-28T13:26:13;5.90;;;4.20;;
7957;SDS011;4024;52.172;5.378;2022-12-28T13:28:50;6.30;;;3.97;;
7957;SDS011;4024;52.172;5.378;2022-12-28T13:31:22;8.97;;;5.00;;
7957;SDS011;4024;52.172;5.378;2022-12-28T13:34:00;5.50;;;4.47;;
7957;SDS011;4024;52.172;5.378;2022-12-28T13:36:28;6.83;;;4.50;;
7957;SDS011;4024;52.172;5.378;2022-12-28T13:39:01;6.60;;;4.27;;
7957;SDS011;4024;52.172;5.378;2022-12-28T13:41:37;7.50;;;3.97;;
7957;SDS011;4024;52.172;5.378;2022-12-28T13:46:42;7.77;;;4.13;;
7957;SDS011;4024;52.172;5.378;2022-12-28T13:49:15;8.07;;;4.77;;
7957;SDS011;4024;52.172;5.378;2022-12-28T13:51:42;8.17;;;4.63;;
7957;SDS011;4024;52.172;5.378;2022-12-28T13:54:08;6.97;;;4.00;;
7957;SDS011;4024;52.172;5.378;2022-12-28T13:56:35;11.10;;;4.50;;
7957;SDS011;4024;52.172;5.378;2022-12-28T13:59:07;7.23;;;4.03;;
7957;SDS011;4024;52.172;5.378;2022-12-28T14:01:37;9.67;;;3.93;;
7957;SDS011;4024;52.172;5.378;2022-12-28T14:04:06;6.00;;;3.77;;
7957;SDS011;4024;52.172;5.378;2022-12-28T14:06:41;7.27;;;4.00;;
7957;SDS011;4024;52.172;5.378;2022-12-28T14:09:11;9.40;;;3.87;;
7957;SDS011;4024;52.172;5.378;2022-12-28T14:11:39;8.50;;;3.90;;
7957;SDS011;4024;52.172;5.378;2022-12-28T14:14:07;8.70;;;4.20;;
7957;SDS011;4024;52.172;5.378;2022-12-28T14:16:34;9.60;;;4.17;;
7957;SDS011;4024;52.172;5.378;2022-12-28T14:19:02;4.67;;;3.63;;
7957;SDS011;4024;52.172;5.378;2022-12-28T14:24:05;8.00;;;3.90;;
7957;SDS011;4024;52.172;5.378;2022-12-28T14:26:33;8.43;;;4.23;;
7957;SDS011;4024;52.172;5.378;2022-12-28T14:28:59;8.97;;;3.80;;
7957;SDS011;4024;52.172;5.378;2022-12-28T14:31:27;6.37;;;3.90;;
7957;SDS011;4024;52.172;5.378;2022-12-28T14:33:56;9.93;;;3.80;;
7957;SDS011;4024;52.172;5.378;2022-12-28T14:36:31;9.17;;;4.00;;
7957;SDS011;4024;52.172;5.378;2022-12-28T14:39:00;9.17;;;3.47;;
7957;SDS011;4024;52.172;5.378;2022-12-28T14:41:28;7.33;;;3.40;;
7957;SDS011;4024;52.172;5.378;2022-12-28T14:43:59;8.10;;;3.33;;
7957;SDS011;4024;52.172;5.378;2022-12-28T14:57:18;6.40;;;2.83;;
7957;SDS011;4024;52.172;5.378;2022-12-28T14:59:45;6.13;;;3.70;;
7957;SDS011;4024;52.172;5.378;2022-12-28T15:05:38;7.53;;;3.43;;
7957;SDS011;4024;52.172;5.378;2022-12-28T15:08:05;6.33;;;3.23;;
7957;SDS011;4024;52.172;5.378;2022-12-28T15:10:33;8.10;;;3.67;;
7957;SDS011;4024;52.172;5.378;2022-12-28T15:13:01;6.90;;;3.30;;
7957;SDS011;4024;52.172;5.378;2022-12-28T15:15:27;9.50;;;3.47;;
7957;SDS011;4024;52.172;5.378;2022-12-28T15:17:52;7.00;;;3.53;;
7957;SDS011;4024;52.172;5.378;2022-12-28T15:20:18;7.73;;;3.47;;
7957;SDS011;4024;52.172;5.378;2022-12-28T15:22:46;7.10;;;3.80;;
7957;SDS011;4024;52.172;5.378;2022-12-28T15:25:12;10.80;;;3.93;;
7957;SDS011;4024;52.172;5.378;2022-12-28T15:27:38;7.63;;;3.77;;
7957;SDS011;4024;52.172;5.378;2022-12-28T15:30:03;9.93;;;4.03;;
7957;SDS011;4024;52.172;5.378;2022-12-28T15:32:29;8.37;;;3.83;;
7957;SDS011;4024;52.172;5.378;2022-12-28T15:34:55;6.67;;;3.70;;
7957;SDS011;4024;52.172;5.378;2022-12-28T15:37:21;10.57;;;3.83;;
7957;SDS011;4024;52.172;5.378;2022-12-28T15:39:46;7.33;;;3.80;;
7957;SDS011;4024;52.172;5.378;2022-12-28T15:42:12;8.63;;;4.07;;
7957;SDS011;4024;52.172;5.378;2022-12-28T15:44:38;12.40;;;4.50;;
7957;SDS011;4024;52.172;5.378;2022-12-28T15:47:04;10.93;;;3.97;;
7957;SDS011;4024;52.172;5.378;2022-12-28T15:49:29;7.10;;;3.57;;
7957;SDS011;4024;52.172;5.378;2022-12-28T15:51:55;6.87;;;3.50;;
7957;SDS011;4024;52.172;5.378;2022-12-28T15:54:20;7.07;;;3.47;;
7957;SDS011;4024;52.172;5.378;2022-12-28T15:56:50;7.10;;;3.40;;
7957;SDS011;4024;52.172;5.378;2022-12-28T15:59:17;6.77;;;3.30;;
7957;SDS011;4024;52.172;5.378;2022-12-28T16:01:42;7.80;;;3.70;;
7957;SDS011;4024;52.172;5.378;2022-12-28T16:04:08;7.90;;;3.60;;
7957;SDS011;4024;52.172;5.378;2022-12-28T16:06:35;7.27;;;3.30;;
7957;SDS011;4024;52.172;5.378;2022-12-28T16:09:00;6.60;;;3.57;;
7957;SDS011;4024;52.172;5.378;2022-12-28T16:11:27;9.13;;;3.50;;
7957;SDS011;4024;52.172;5.378;2022-12-28T16:13:54;11.53;;;3.67;;
7957;SDS011;4024;52.172;5.378;2022-12-28T16:16:21;7.40;;;4.17;;
7957;SDS011;4024;52.172;5.378;2022-12-28T16:18:47;7.37;;;4.00;;
7957;SDS011;4024;52.172;5.378;2022-12-28T16:21:14;8.37;;;3.60;;
7957;SDS011;4024;52.172;5.378;2022-12-28T16:23:41;7.33;;;3.30;;
7957;SDS011;4024;52.172;5.378;2022-12-28T16:26:08;5.83;;;3.57;;
7957;SDS011;4024;52.172;5.378;2022-12-28T16:28:35;9.63;;;4.07;;
7957;SDS011;4024;52.172;5.378;2022-12-28T16:31:01;7.70;;;3.37;;
7957;SDS011;4024;52.172;5.378;2022-12-28T16:33:27;6.70;;;3.53;;
7957;SDS011;4024;52.172;5.378;2022-12-28T16:35:52;7.23;;;3.43;;
7957;SDS011;4024;52.172;5.378;2022-12-28T16:38:19;5.07;;;3.40;;
7957;SDS011;4024;52.172;5.378;2022-12-28T16:40:47;6.40;;;3.23;;
7957;SDS011;4024;52.172;5.378;2022-12-28T16:43:14;9.13;;;4.27;;
7957;SDS011;4024;52.172;5.378;2022-12-28T16:45:42;5.83;;;3.33;;
7957;SDS011;4024;52.172;5.378;2022-12-28T16:48:10;6.80;;;3.57;;
7957;SDS011;4024;52.172;5.378;2022-12-28T16:50:37;6.67;;;3.90;;
7957;SDS011;4024;52.172;5.378;2022-12-28T16:53:03;10.93;;;4.00;;
7957;SDS011;4024;52.172;5.378;2022-12-28T16:55:30;5.87;;;3.67;;
7957;SDS011;4024;52.172;5.378;2022-12-28T16:58:01;8.10;;;3.70;;
7957;SDS011;4024;52.172;5.378;2022-12-28T17:00:28;7.20;;;3.63;;
7957;SDS011;4024;52.172;5.378;2022-12-28T17:02:53;8.50;;;3.77;;
7957;SDS011;4024;52.172;5.378;2022-12-28T17:05:20;8.33;;;4.13;;
7957;SDS011;4024;52.172;5.378;2022-12-28T17:07:46;6.17;;;3.77;;
7957;SDS011;4024;52.172;5.378;2022-12-28T17:10:12;5.70;;;4.23;;
7957;SDS011;4024;52.172;5.378;2022-12-28T17:12:38;6.43;;;3.87;;
7957;SDS011;4024;52.172;5.378;2022-12-28T17:15:04;5.93;;;3.80;;
7957;SDS011;4024;52.172;5.378;2022-12-28T17:17:30;8.23;;;3.70;;
7957;SDS011;4024;52.172;5.378;2022-12-28T17:19:55;5.73;;;3.83;;
7957;SDS011;4024;52.172;5.378;2022-12-28T17:22:21;6.03;;;3.73;;